Time;durP1;ratioP1;P1;durP2;ratioP2;P2;SDS_P1;SDS_P2;PMS_P1;PMS_P2;Temp;Humidity;BMP_temperature;BMP_pressure;BME280_temperature;BME280_humidity;BME280_pressure;Samples;Min_cycle;Max_cycle;Signal;HPM_P1;HPM_P2
2023/07/12 00:01:21;;;;;;;13.82;8.45;;;;;;;23.30;66.08;98628.19;4485318;31;20150;-68
2023/07/12 00:03:49;;;;;;;9.55;7.18;;;;;;;23.24;66.17;98626.41;4485203;32;20162;-67
2023/07/12 00:06:18;;;;;;;10.93;7.75;;;;;;;23.20;65.84;98631.41;4484179;32;20112;-67
2023/07/12 00:08:46;;;;;;;11.85;7.97;;;;;;;23.24;65.58;98629.94;4485333;31;20118;-67
2023/07/12 00:11:22;;;;;;;14.52;8.00;;;;;;;23.16;66.73;98623.00;4485116;31;20158;-67
2023/07/12 00:13:53;;;;;;;12.43;7.87;;;;;;;23.14;67.77;98617.06;4485264;31;20153;-67
2023/07/12 00:16:29;;;;;;;15.05;8.18;;;;;;;23.16;68.09;98624.84;4485153;31;20465;-67
2023/07/12 00:18:57;;;;;;;12.55;7.87;;;;;;;23.14;67.74;98611.72;4485229;31;20107;-67
2023/07/12 00:21:28;;;;;;;13.57;7.82;;;;;;;23.22;67.52;98615.94;4485127;31;20084;-67
2023/07/12 00:23:58;;;;;;;13.57;6.97;;;;;;;23.20;66.92;98621.53;4485485;31;20119;-67
2023/07/12 00:26:29;;;;;;;15.18;8.00;;;;;;;23.18;66.61;98622.78;4484909;31;20129;-67
2023/07/12 00:28:59;;;;;;;19.25;8.95;;;;;;;23.23;67.10;98630.16;4485368;31;20115;-68
2023/07/12 00:31:34;;;;;;;16.50;7.30;;;;;;;23.29;66.10;98626.59;4485342;31;20088;-67
2023/07/12 00:34:02;;;;;;;17.60;7.80;;;;;;;23.35;65.59;98615.78;4485116;31;20156;-68
2023/07/12 00:36:32;;;;;;;17.37;6.85;;;;;;;23.33;64.15;98614.37;4485231;31;20506;-67
2023/07/12 00:39:02;;;;;;;13.90;7.03;;;;;;;23.39;63.90;98618.84;4485029;31;20093;-67
2023/07/12 00:41:49;;;;;;;15.50;7.60;;;;;;;23.44;62.34;98615.47;4485364;31;20145;-67
2023/07/12 00:44:23;;;;;;;8.35;6.12;;;;;;;23.43;61.38;98613.87;4485049;31;20119;-67
2023/07/12 00:46:57;;;;;;;10.13;5.82;;;;;;;23.45;59.63;98612.63;4485037;31;20540;-67
2023/07/12 00:49:25;;;;;;;12.32;5.40;;;;;;;23.54;58.60;98607.75;4484953;31;20163;-67
2023/07/12 00:52:29;;;;;;;10.05;5.68;;;;;;;23.53;57.21;98608.81;4484857;31;20127;-67
2023/07/12 00:54:58;;;;;;;9.38;5.40;;;;;;;23.64;56.17;98604.56;4420279;32;20156;-67
2023/07/12 00:57:27;;;;;;;8.80;5.85;;;;;;;23.65;56.02;98607.00;4420243;32;20177;-67
2023/07/12 01:00:10;;;;;;;8.32;5.30;;;;;;;23.63;55.80;98608.25;4420408;32;20106;-67
2023/07/12 01:02:40;;;;;;;7.47;5.68;;;;;;;23.69;55.92;98604.69;4407905;32;20090;-67
2023/07/12 01:05:08;;;;;;;12.00;6.12;;;;;;;23.72;56.43;98598.87;4420542;32;20195;-67
2023/07/12 01:07:36;;;;;;;11.55;5.68;;;;;;;23.71;56.87;98589.25;4420254;32;20113;-67
2023/07/12 01:10:03;;;;;;;7.60;5.68;;;;;;;23.50;58.01;98586.00;4420227;32;20117;-67
2023/07/12 01:12:30;;;;;;;10.07;6.12;;;;;;;23.67;58.54;98569.34;4420235;32;20137;-67
2023/07/12 01:14:58;;;;;;;11.55;6.80;;;;;;;23.48;59.68;98564.03;4420000;32;20113;-67
2023/07/12 01:17:26;;;;;;;10.68;6.50;;;;;;;23.36;60.48;98572.00;4407504;32;20122;-67
2023/07/12 01:19:54;;;;;;;11.23;6.32;;;;;;;23.39;60.90;98565.38;4420051;32;20098;-67
2023/07/12 01:22:21;;;;;;;12.80;5.97;;;;;;;23.36;61.36;98568.50;4420034;32;20098;-67
2023/07/12 01:24:48;;;;;;;10.50;6.32;;;;;;;23.30;61.87;98566.72;4420335;32;20896;-67
2023/07/12 01:27:19;;;;;;;9.88;6.05;;;;;;;23.23;62.02;98564.12;4419911;32;20554;-67
2023/07/12 01:29:48;;;;;;;10.60;6.25;;;;;;;23.16;62.18;98560.72;4420067;32;20359;-67
2023/07/12 01:32:17;;;;;;;8.55;6.15;;;;;;;23.15;62.32;98559.09;4474662;32;20089;-67
2023/07/12 01:34:45;;;;;;;9.55;6.22;;;;;;;23.12;62.69;98559.53;4483034;32;20115;-67
2023/07/12 01:37:16;;;;;;;11.07;5.87;;;;;;;22.99;63.49;98566.63;4484452;31;20080;-67
2023/07/12 01:39:46;;;;;;;13.13;5.85;;;;;;;22.91;63.55;98564.28;4486030;31;20084;-67
2023/07/12 01:42:15;;;;;;;10.88;5.43;;;;;;;22.91;62.91;98561.59;4486335;32;20101;-67
2023/07/12 01:44:43;;;;;;;9.63;5.30;;;;;;;22.84;62.76;98564.31;4486199;31;20485;-67
2023/07/12 01:47:11;;;;;;;7.75;5.40;;;;;;;22.81;62.55;98562.09;4486391;31;20216;-67
2023/07/12 01:49:38;;;;;;;10.18;5.53;;;;;;;22.74;62.71;98565.88;4486093;31;20163;-67
2023/07/12 01:52:05;;;;;;;7.87;5.15;;;;;;;22.59;62.70;98566.22;4486297;32;20092;-68
2023/07/12 01:54:33;;;;;;;10.65;5.05;;;;;;;22.54;63.28;98574.09;4486131;31;20466;-67
2023/07/12 01:57:00;;;;;;;9.48;5.68;;;;;;;22.54;63.52;98571.41;4486143;31;20089;-67
2023/07/12 01:59:28;;;;;;;16.90;5.82;;;;;;;22.50;63.83;98573.72;4486251;31;20099;-67
2023/07/12 02:01:59;;;;;;;9.30;5.68;;;;;;;22.37;64.51;98579.16;4486000;31;20103;-67
2023/07/12 02:04:26;;;;;;;13.88;5.47;;;;;;;22.28;64.98;98581.25;4485929;31;20116;-67
2023/07/12 02:06:53;;;;;;;7.53;5.62;;;;;;;22.31;65.16;98576.31;4486232;31;20092;-67
2023/07/12 02:09:21;;;;;;;8.27;5.57;;;;;;;22.23;65.78;98573.91;4486184;31;20088;-67
2023/07/12 02:11:48;;;;;;;9.05;5.68;;;;;;;22.14;66.35;98576.03;4486145;31;20152;-67
2023/07/12 02:14:16;;;;;;;10.02;5.85;;;;;;;22.06;67.05;98567.47;4485996;31;20108;-67
2023/07/12 02:16:44;;;;;;;9.73;5.55;;;;;;;21.95;67.43;98566.31;4485983;32;20096;-67
2023/07/12 02:19:14;;;;;;;9.85;5.40;;;;;;;21.87;67.99;98569.25;4485978;32;20091;-67
2023/07/12 02:21:43;;;;;;;10.55;5.22;;;;;;;21.79;68.56;98563.13;4486197;31;20134;-67
2023/07/12 02:24:12;;;;;;;10.23;6.07;;;;;;;21.83;68.94;98557.38;4485800;31;20180;-67
2023/07/12 02:26:41;;;;;;;8.88;5.80;;;;;;;21.73;69.56;98544.53;4485920;32;20115;-67
2023/07/12 02:29:08;;;;;;;10.73;6.07;;;;;;;21.66;70.25;98549.88;4485926;31;20115;-67
2023/07/12 02:31:36;;;;;;;12.68;5.62;;;;;;;21.68;70.19;98550.50;4485878;32;20096;-67
2023/07/12 02:34:04;;;;;;;10.77;5.05;;;;;;;21.61;70.53;98547.84;4485679;31;20089;-67
2023/07/12 02:36:31;;;;;;;7.93;5.00;;;;;;;21.58;71.00;98534.16;4486096;32;20096;-67
2023/07/12 02:38:59;;;;;;;8.40;5.70;;;;;;;21.58;70.68;98534.97;4485849;31;20096;-67
2023/07/12 02:41:26;;;;;;;10.65;5.03;;;;;;;21.56;71.09;98528.19;4485702;32;20096;-67
2023/07/12 02:43:54;;;;;;;8.70;5.07;;;;;;;21.53;70.89;98529.47;4485773;31;20135;-67
2023/07/12 02:46:21;;;;;;;8.98;5.05;;;;;;;21.42;71.01;98524.75;4485870;31;20108;-67
2023/07/12 02:48:50;;;;;;;10.95;4.80;;;;;;;21.43;71.04;98534.41;4485502;31;20234;-67
2023/07/12 02:51:17;;;;;;;10.32;4.60;;;;;;;21.41;70.95;98531.16;4484753;32;20564;-67
2023/07/12 02:53:45;;;;;;;8.75;5.22;;;;;;;21.43;70.80;98524.56;4485520;31;20088;-67
2023/07/12 02:56:12;;;;;;;9.88;5.40;;;;;;;21.44;70.96;98528.84;4485868;31;20115;-67
2023/07/12 02:58:41;;;;;;;7.15;4.70;;;;;;;21.36;71.41;98531.78;4485613;31;20088;-67
2023/07/12 03:01:11;;;;;;;8.90;4.82;;;;;;;21.31;71.78;98533.44;4485816;31;20533;-67
2023/07/12 03:03:40;;;;;;;9.38;5.22;;;;;;;21.28;72.09;98518.69;4485787;31;20160;-67
2023/07/12 03:06:10;;;;;;;11.00;5.03;;;;;;;21.35;72.01;98521.34;4485493;31;20115;-67
2023/07/12 03:08:38;;;;;;;8.85;4.85;;;;;;;21.32;72.42;98517.25;4485764;31;20110;-67
2023/07/12 03:11:08;;;;;;;8.10;4.90;;;;;;;21.31;72.42;98512.94;4485791;31;20153;-67
2023/07/12 03:13:37;;;;;;;7.72;4.90;;;;;;;21.38;72.22;98508.41;4485496;31;20117;-67
2023/07/12 03:16:07;;;;;;;8.82;4.55;;;;;;;21.38;71.62;98508.41;4484369;32;20127;-67
2023/07/12 03:18:34;;;;;;;7.22;4.75;;;;;;;21.44;71.21;98515.53;4485980;31;20671;-67
2023/07/12 03:21:04;;;;;;;7.90;4.87;;;;;;;21.32;71.74;98517.25;4485605;32;20152;-67
2023/07/12 03:23:33;;;;;;;8.73;4.53;;;;;;;21.23;72.37;98519.34;4485495;31;20097;-67
2023/07/12 03:26:01;;;;;;;7.55;4.90;;;;;;;21.37;72.13;98528.06;4485564;32;20092;-67
2023/07/12 03:28:29;;;;;;;9.00;4.70;;;;;;;21.39;72.23;98526.03;4485570;31;20100;-67
2023/07/12 03:31:05;;;;;;;8.50;4.45;;;;;;;21.40;72.49;98532.16;4485608;31;20118;-67
2023/07/12 03:33:33;;;;;;;14.98;4.95;;;;;;;21.39;72.81;98530.53;4485511;31;20439;-67
2023/07/12 03:36:00;;;;;;;7.75;4.68;;;;;;;21.41;72.76;98528.47;4485346;31;20470;-67
2023/07/12 03:38:30;;;;;;;9.65;4.78;;;;;;;21.50;72.44;98529.91;4485692;31;20159;-67
2023/07/12 03:41:03;;;;;;;5.75;4.43;;;;;;;21.56;72.15;98530.87;4485283;31;20088;-67
2023/07/12 03:43:32;;;;;;;10.15;4.57;;;;;;;21.51;72.08;98538.69;4485542;31;20533;-67
2023/07/12 03:45:59;;;;;;;6.00;4.57;;;;;;;21.54;72.39;98538.28;4484098;32;20131;-67
2023/07/12 03:48:26;;;;;;;8.18;4.75;;;;;;;21.53;72.49;98545.47;4485562;31;20089;-67
2023/07/12 03:50:55;;;;;;;9.82;5.12;;;;;;;21.59;72.01;98544.59;4485541;32;20288;-67
2023/07/12 03:53:24;;;;;;;8.30;4.62;;;;;;;21.74;71.62;98556.81;4485333;32;20103;-67
2023/07/12 03:55:51;;;;;;;9.30;4.80;;;;;;;21.75;71.22;98548.59;4485301;31;21221;-67
2023/07/12 03:58:21;;;;;;;8.05;5.00;;;;;;;21.90;70.74;98528.81;4485313;31;20195;-67
2023/07/12 04:00:50;;;;;;;17.98;4.97;;;;;;;21.92;69.86;98534.75;4485090;31;20136;-67
2023/07/12 04:03:20;;;;;;;12.63;4.55;;;;;;;21.95;69.46;98536.97;4485014;31;20206;-67
2023/07/12 04:05:51;;;;;;;8.27;4.60;;;;;;;22.02;69.64;98527.06;4485136;31;20119;-68
2023/07/12 04:08:19;;;;;;;8.50;4.18;;;;;;;22.22;68.84;98540.25;4484844;31;20092;-67
2023/07/12 04:10:54;;;;;;;15.70;4.40;;;;;;;22.40;67.72;98539.50;4484122;31;20064;-68
2023/07/12 04:13:23;;;;;;;8.40;4.05;;;;;;;22.54;67.45;98555.41;4485300;31;20116;-68
2023/07/12 04:15:52;;;;;;;8.57;4.55;;;;;;;22.67;67.40;98557.94;4485080;31;20152;-68
2023/07/12 04:18:21;;;;;;;9.25;4.40;;;;;;;22.72;66.40;98560.75;4485284;31;20096;-68
2023/07/12 04:20:48;;;;;;;7.97;4.30;;;;;;;22.63;67.57;98562.09;4485243;31;20488;-68
2023/07/12 04:23:16;;;;;;;9.10;4.80;;;;;;;22.77;67.75;98568.09;4485158;32;20127;-68
2023/07/12 04:25:45;;;;;;;5.85;4.18;;;;;;;22.87;66.98;98574.56;4485227;31;20092;-68
2023/07/12 04:28:13;;;;;;;9.95;4.53;;;;;;;22.68;66.81;98565.75;4485077;31;20794;-68
2023/07/12 04:30:41;;;;;;;9.63;4.15;;;;;;;22.63;67.68;98554.06;4485088;32;20133;-68
2023/07/12 04:33:09;;;;;;;9.05;6.53;;;;;;;22.62;67.34;98529.25;4485058;31;20105;-68
2023/07/12 04:35:38;;;;;;;7.37;4.37;;;;;;;22.66;67.50;98525.09;4484911;31;20568;-68
2023/07/12 04:38:06;;;;;;;8.20;4.30;;;;;;;22.54;67.56;98531.38;4485081;31;20097;-68
2023/07/12 04:40:33;;;;;;;10.57;4.70;;;;;;;22.66;67.08;98542.94;4484865;32;20119;-68
2023/07/12 04:43:00;;;;;;;7.80;4.12;;;;;;;22.77;67.22;98536.91;4485144;31;20101;-68
2023/07/12 04:45:28;;;;;;;10.38;4.65;;;;;;;22.79;66.80;98508.09;4484929;32;20088;-68
2023/07/12 04:47:57;;;;;;;8.18;4.68;;;;;;;22.67;67.43;98504.53;4484978;32;20096;-68
2023/07/12 04:50:26;;;;;;;9.38;4.65;;;;;;;22.68;67.61;98511.53;4484772;31;20084;-69
2023/07/12 04:52:54;;;;;;;11.70;4.75;;;;;;;22.63;68.24;98519.38;4469086;32;20089;-69
2023/07/12 04:55:26;;;;;;;16.15;5.00;;;;;;;22.63;67.14;98504.16;4469290;32;20466;-69
2023/07/12 04:57:54;;;;;;;8.32;4.40;;;;;;;22.59;67.97;98513.66;4468811;32;20089;-69
2023/07/12 05:00:25;;;;;;;7.12;4.25;;;;;;;22.66;67.68;98521.59;4467823;32;20182;-69
2023/07/12 05:02:53;;;;;;;6.97;4.95;;;;;;;22.68;67.82;98525.69;4469189;32;20529;-69
2023/07/12 05:05:21;;;;;;;14.93;5.03;;;;;;;22.79;68.27;98529.47;4469134;32;20093;-69
2023/07/12 05:07:55;;;;;;;12.63;5.30;;;;;;;22.87;67.17;98536.38;4468877;32;20093;-69
2023/07/12 05:10:22;;;;;;;7.75;4.97;;;;;;;22.77;68.17;98526.22;4468708;32;20530;-69
2023/07/12 05:12:51;;;;;;;10.15;4.82;;;;;;;22.95;67.74;98521.87;4467901;32;20119;-69
2023/07/12 05:15:20;;;;;;;6.85;4.55;;;;;;;23.10;67.95;98519.66;4484230;32;20149;-69
2023/07/12 05:17:47;;;;;;;11.73;4.75;;;;;;;23.32;67.42;98527.22;4484484;31;20135;-69
2023/07/12 05:20:15;;;;;;;10.48;4.72;;;;;;;23.43;66.94;98518.44;4484380;32;20585;-69
2023/07/12 05:22:43;;;;;;;15.68;5.53;;;;;;;23.56;66.33;98520.13;4484527;31;20092;-69
2023/07/12 05:25:11;;;;;;;7.62;4.37;;;;;;;23.67;64.31;98523.88;4484579;31;20152;-69
2023/07/12 05:27:40;;;;;;;9.82;4.82;;;;;;;23.82;64.29;98510.88;4484975;31;20127;-69
2023/07/12 05:30:08;;;;;;;11.48;4.78;;;;;;;23.91;62.65;98504.16;4483182;31;20168;-69
2023/07/12 05:32:36;;;;;;;14.52;5.10;;;;;;;23.92;62.98;98515.69;4482309;31;20591;-69
2023/07/12 05:35:05;;;;;;;8.15;4.70;;;;;;;24.27;61.99;98513.06;4479340;31;20477;-69
2023/07/12 05:37:34;;;;;;;9.20;5.00;;;;;;;24.48;60.10;98505.47;4475298;31;20168;-69
2023/07/12 05:40:03;;;;;;;18.20;5.65;;;;;;;24.64;59.36;98503.16;4485782;31;20076;-69
2023/07/12 05:42:32;;;;;;;9.00;4.82;;;;;;;24.82;58.99;98505.69;4468028;32;20092;-69
2023/07/12 05:45:00;;;;;;;16.80;5.07;;;;;;;25.00;57.74;98509.25;4482476;31;20522;-69
2023/07/12 05:47:27;;;;;;;14.10;4.90;;;;;;;25.07;57.76;98515.28;4481788;31;20095;-68
2023/07/12 05:49:56;;;;;;;29.95;6.70;;;;;;;25.06;57.99;98498.41;4482757;31;20103;-68
2023/07/12 05:52:25;;;;;;;19.30;5.97;;;;;;;24.87;58.20;98515.69;4482900;31;20130;-68
2023/07/12 05:54:52;;;;;;;10.35;5.57;;;;;;;24.95;58.20;98502.75;4484082;31;20164;-68
2023/07/12 05:57:20;;;;;;;14.65;5.20;;;;;;;24.97;57.99;98497.94;4483882;31;20108;-68
2023/07/12 05:59:47;;;;;;;11.88;5.50;;;;;;;25.03;57.63;98488.16;4482919;31;20097;-68
2023/07/12 06:02:16;;;;;;;10.13;5.37;;;;;;;25.33;56.36;98490.63;4483347;31;20720;-68
2023/07/12 06:04:44;;;;;;;10.52;5.75;;;;;;;25.49;56.69;98493.59;4479356;31;20108;-68
2023/07/12 06:07:11;;;;;;;14.18;5.75;;;;;;;25.62;56.07;98481.75;4476214;31;20118;-68
2023/07/12 06:09:38;;;;;;;9.88;5.35;;;;;;;25.75;56.34;98481.41;4479179;31;20100;-68
2023/07/12 06:12:08;;;;;;;11.35;5.80;;;;;;;25.72;55.70;98478.41;4479469;31;20159;-68
2023/07/12 06:14:36;;;;;;;15.93;7.25;;;;;;;25.79;56.80;98471.03;4480633;31;20092;-68
2023/07/12 06:17:06;;;;;;;12.43;6.50;;;;;;;26.10;56.67;98472.34;4476174;31;20127;-68
2023/07/12 06:19:33;;;;;;;7.55;6.18;;;;;;;26.28;55.48;98473.94;4479459;31;20112;-68
2023/07/12 06:22:01;;;;;;;8.98;6.15;;;;;;;26.39;54.59;98473.03;4476248;31;20104;-68
2023/07/12 06:24:28;;;;;;;13.50;6.22;;;;;;;26.43;54.65;98472.53;4481206;31;20100;-68
2023/07/12 06:26:56;;;;;;;9.43;5.70;;;;;;;26.60;54.73;98475.16;4481122;31;20168;-68
2023/07/12 06:29:24;;;;;;;12.73;6.57;;;;;;;26.71;54.59;98480.44;4478149;31;20100;-68
2023/07/12 06:31:54;;;;;;;9.65;6.20;;;;;;;26.75;53.77;98475.38;4482579;31;20100;-68
2023/07/12 06:34:23;;;;;;;17.48;7.15;;;;;;;26.58;54.49;98480.78;4481343;31;20127;-68
2023/07/12 06:36:51;;;;;;;14.18;6.70;;;;;;;26.64;55.98;98481.66;4481283;31;20452;-68
2023/07/12 06:39:19;;;;;;;13.62;8.57;;;;;;;26.73;55.10;98483.69;4482637;31;20104;-68
2023/07/12 06:41:46;;;;;;;11.23;6.25;;;;;;;26.96;55.78;98489.88;4479941;31;20104;-68
2023/07/12 06:44:16;;;;;;;9.55;7.12;;;;;;;26.96;55.82;98489.88;4478633;31;20112;-68
2023/07/12 06:46:43;;;;;;;16.33;7.00;;;;;;;26.80;55.88;98486.22;4481143;31;20142;-68
2023/07/12 06:49:15;;;;;;;14.73;7.00;;;;;;;26.86;57.53;98487.06;4480639;31;20092;-68
2023/07/12 06:51:46;;;;;;;13.62;8.38;;;;;;;26.90;57.01;98488.19;4477057;31;20096;-68
2023/07/12 06:54:16;;;;;;;9.05;6.57;;;;;;;27.11;56.88;98488.44;4481188;31;20100;-68
2023/07/12 06:56:45;;;;;;;14.77;7.28;;;;;;;27.35;55.79;98495.19;4479358;31;20118;-68
2023/07/12 06:59:13;;;;;;;10.45;7.43;;;;;;;27.50;56.99;98507.16;4476347;31;20156;-68
2023/07/12 07:01:40;;;;;;;15.00;6.80;;;;;;;27.67;55.44;98502.47;4482001;31;20101;-68
2023/07/12 07:04:07;;;;;;;9.73;7.68;;;;;;;27.81;54.99;98494.78;4479018;31;20434;-68
2023/07/12 07:06:35;;;;;;;11.07;7.43;;;;;;;27.51;56.41;98484.56;4480117;31;20101;-68
2023/07/12 07:09:03;;;;;;;10.65;7.47;;;;;;;27.08;56.94;98469.03;4478757;31;20093;-68
2023/07/12 07:11:30;;;;;;;12.77;7.75;;;;;;;26.92;58.18;98459.22;4477310;32;20169;-68
2023/07/12 07:13:58;;;;;;;11.38;7.28;;;;;;;26.70;59.87;98456.53;4481001;31;20394;-68
2023/07/12 07:16:30;;;;;;;14.98;7.47;;;;;;;27.07;59.91;98445.94;4477046;31;20091;-68
2023/07/12 07:18:58;;;;;;;15.15;7.22;;;;;;;27.40;58.70;98444.13;4481381;31;20235;-68
2023/07/12 07:21:25;;;;;;;19.12;7.57;;;;;;;27.61;58.56;98434.31;4481019;31;20168;-68
2023/07/12 07:23:53;;;;;;;14.95;7.60;;;;;;;27.55;56.86;98419.22;4479868;31;20093;-68
2023/07/12 07:26:21;;;;;;;16.12;7.15;;;;;;;27.54;56.95;98417.63;4477242;31;20175;-68
2023/07/12 07:29:02;;;;;;;15.20;7.78;;;;;;;27.41;58.21;98416.16;4479306;31;20367;-68
2023/07/12 07:31:30;;;;;;;9.52;7.07;;;;;;;27.47;58.09;98406.25;4475967;31;20112;-68
2023/07/12 07:33:57;;;;;;;13.00;7.28;;;;;;;27.59;56.79;98414.94;4480558;31;20116;-68
2023/07/12 07:36:34;;;;;;;17.90;7.72;;;;;;;27.58;56.31;98407.13;4479962;31;20475;-68
2023/07/12 07:39:05;;;;;;;10.75;7.72;;;;;;;27.60;57.08;98396.91;4480246;31;20096;-68
2023/07/12 07:41:33;;;;;;;8.18;7.15;;;;;;;27.67;56.68;98400.19;4481032;31;20112;-68
2023/07/12 07:44:02;;;;;;;13.48;7.50;;;;;;;27.82;58.35;98406.78;4481988;31;20104;-68
2023/07/12 07:46:30;;;;;;;15.43;7.68;;;;;;;28.01;57.59;98405.31;4482510;31;20104;-68
2023/07/12 07:48:59;;;;;;;11.93;7.53;;;;;;;28.14;54.69;98404.03;4480542;31;20165;-68
2023/07/12 07:51:28;;;;;;;12.13;7.75;;;;;;;28.45;57.54;98410.38;4481424;31;20122;-68
2023/07/12 07:53:55;;;;;;;12.57;7.15;;;;;;;28.98;56.81;98396.03;4481360;31;20119;-68
2023/07/12 07:56:23;;;;;;;18.67;8.18;;;;;;;28.98;53.68;98394.13;4481949;31;20108;-68
2023/07/12 07:58:50;;;;;;;12.77;7.68;;;;;;;28.63;54.77;98382.19;4481303;31;20118;-68
2023/07/12 08:01:17;;;;;;;14.38;7.72;;;;;;;28.81;54.04;98385.47;4482729;31;20120;-68
2023/07/12 08:03:45;;;;;;;14.50;8.02;;;;;;;28.89;53.66;98376.03;4479188;31;20116;-68
2023/07/12 08:06:14;;;;;;;11.55;7.62;;;;;;;28.78;53.27;98386.81;4478782;31;20218;-68
2023/07/12 08:08:41;;;;;;;10.73;7.62;;;;;;;28.78;56.53;98373.34;4479065;31;20107;-68
2023/07/12 08:11:08;;;;;;;11.45;8.30;;;;;;;28.81;56.30;98363.88;4479000;31;20166;-68
2023/07/12 08:13:38;;;;;;;12.90;8.32;;;;;;;28.95;54.64;98362.31;4481541;31;20553;-68
2023/07/12 08:16:07;;;;;;;12.85;7.78;;;;;;;29.02;54.41;98364.72;4479328;31;20104;-68
2023/07/12 08:18:34;;;;;;;13.38;8.15;;;;;;;29.08;54.65;98362.84;4480149;31;20115;-68
2023/07/12 08:21:04;;;;;;;14.13;7.53;;;;;;;29.16;54.14;98365.84;4481330;31;20109;-68
2023/07/12 08:23:33;;;;;;;13.93;8.13;;;;;;;29.28;55.60;98375.56;4476988;31;20092;-68
2023/07/12 08:26:02;;;;;;;13.23;7.90;;;;;;;29.22;54.83;98358.56;4476588;31;20489;-68
2023/07/12 08:28:29;;;;;;;13.73;8.57;;;;;;;29.49;56.17;98362.87;4474953;31;20108;-68
2023/07/12 08:30:58;;;;;;;14.85;9.25;;;;;;;29.63;55.95;98369.37;4479767;31;20093;-68
2023/07/12 08:33:26;;;;;;;17.40;7.80;;;;;;;29.90;53.52;98369.06;4480730;31;20678;-68
2023/07/12 08:35:54;;;;;;;13.48;8.38;;;;;;;30.04;53.83;98379.31;4479079;31;20152;-68
2023/07/12 08:38:21;;;;;;;13.20;8.75;;;;;;;30.00;57.38;98383.63;4473872;31;20466;-68
2023/07/12 08:40:50;;;;;;;13.62;9.43;;;;;;;29.80;55.89;98379.06;4485663;31;20109;-68
2023/07/12 08:43:31;;;;;;;17.15;8.65;;;;;;;30.22;53.36;98367.91;4483748;31;20123;-68
2023/07/12 08:46:14;;;;;;;11.43;8.60;;;;;;;30.27;52.62;98378.69;4477929;31;20187;-68
2023/07/12 08:48:42;;;;;;;12.53;9.13;;;;;;;30.50;53.38;98378.34;4482829;31;20417;-68
2023/07/12 08:51:19;;;;;;;17.35;9.50;;;;;;;30.33;54.12;98373.28;4484807;31;20428;-68
2023/07/12 08:53:47;;;;;;;13.02;8.82;;;;;;;30.25;52.99;98369.22;4480431;31;20165;-68
2023/07/12 08:56:15;;;;;;;13.27;9.20;;;;;;;30.48;55.44;98386.75;4484388;31;20108;-68
2023/07/12 08:58:50;;;;;;;18.30;9.18;;;;;;;31.13;52.75;98388.56;4483158;31;20496;-68
2023/07/12 09:01:42;;;;;;;13.30;9.13;;;;;;;31.41;51.28;98402.41;4486304;31;20119;-68
2023/07/12 09:04:23;;;;;;;14.15;9.45;;;;;;;31.30;49.99;98397.09;4474948;32;20179;-68
2023/07/12 09:06:54;;;;;;;11.45;9.32;;;;;;;31.21;50.63;98415.00;4479840;31;20119;-68
2023/07/12 09:09:21;;;;;;;16.02;8.43;;;;;;;30.89;51.34;98418.97;4485615;31;20124;-68
2023/07/12 09:11:49;;;;;;;11.80;8.43;;;;;;;30.56;53.38;98405.06;4474274;31;20089;-68
2023/07/12 09:14:20;;;;;;;12.50;9.07;;;;;;;30.96;53.29;98408.66;4490286;31;20168;-68
2023/07/12 09:16:49;;;;;;;12.37;9.63;;;;;;;31.40;52.16;98404.34;4484615;31;20532;-67
2023/07/12 09:19:23;;;;;;;20.27;9.05;;;;;;;31.60;50.78;98403.38;4470176;31;20131;-66
2023/07/12 09:21:56;;;;;;;10.93;9.07;;;;;;;31.87;50.55;98402.03;4479319;31;20163;-66
2023/07/12 09:24:32;;;;;;;11.07;8.23;;;;;;;32.00;49.87;98400.53;4483559;31;20166;-66
2023/07/12 09:27:04;;;;;;;11.85;8.75;;;;;;;32.31;52.01;98402.94;4474317;31;20230;-66
2023/07/12 09:29:33;;;;;;;14.40;9.13;;;;;;;32.66;48.45;98412.56;4481407;31;20733;-66
2023/07/12 09:32:15;;;;;;;17.73;8.75;;;;;;;32.76;47.39;98416.25;4480654;31;20146;-66
2023/07/12 09:34:44;;;;;;;18.17;8.95;;;;;;;32.75;46.98;98414.63;4478929;31;20119;-66
2023/07/12 09:37:36;;;;;;;16.70;9.35;;;;;;;32.49;48.18;98418.47;4476648;31;20092;-66
2023/07/12 09:40:15;;;;;;;14.73;9.50;;;;;;;32.15;49.00;98424.00;4470398;31;20093;-66
2023/07/12 09:42:47;;;;;;;16.08;9.30;;;;;;;31.59;50.65;98436.16;4481116;31;20104;-66
2023/07/12 09:45:16;;;;;;;13.62;9.70;;;;;;;31.76;49.98;98433.03;4478014;31;20150;-66
2023/07/12 09:47:56;;;;;;;16.02;9.07;;;;;;;31.59;50.22;98433.44;4455074;32;20092;-68
2023/07/12 09:50:35;;;;;;;21.20;9.48;;;;;;;31.77;50.00;98430.03;4479139;31;20088;-68
2023/07/12 09:53:08;;;;;;;16.40;9.82;;;;;;;31.90;50.63;98417.72;4473578;32;20131;-68
2023/07/12 09:55:51;;;;;;;14.25;9.20;;;;;;;31.87;49.92;98420.97;4477339;31;20134;-68
2023/07/12 09:58:43;;;;;;;11.98;9.32;;;;;;;32.03;50.88;98419.75;4487798;31;20562;-68
2023/07/12 10:01:18;;;;;;;13.80;9.43;;;;;;;32.45;51.07;98427.47;4484428;31;20409;-68
2023/07/12 10:03:55;;;;;;;15.60;9.60;;;;;;;32.89;49.73;98420.94;4479958;31;20096;-68
2023/07/12 10:06:42;;;;;;;20.08;10.80;;;;;;;32.94;49.88;98406.50;4483065;32;20101;-68
2023/07/12 10:09:26;;;;;;;12.07;9.40;;;;;;;32.48;49.60;98402.47;4483408;31;20158;-66
2023/07/12 10:12:08;;;;;;;14.10;9.73;;;;;;;32.60;50.16;98400.16;4481973;31;20147;-67
2023/07/12 10:14:39;;;;;;;13.65;9.52;;;;;;;32.64;49.59;98400.37;4474905;31;20108;-67
2023/07/12 10:17:16;;;;;;;12.13;8.73;;;;;;;32.27;50.06;98388.38;4482518;32;20088;-67
2023/07/12 10:19:46;;;;;;;11.82;9.55;;;;;;;32.40;50.06;98386.84;4479849;31;20644;-68
2023/07/12 10:22:21;;;;;;;13.48;8.98;;;;;;;32.27;49.71;98393.78;4495525;31;20113;-66
2023/07/12 10:24:51;;;;;;;20.42;9.77;;;;;;;32.03;51.20;98389.94;4487026;31;20144;-66
2023/07/12 10:27:24;;;;;;;14.48;9.52;;;;;;;32.22;51.43;98380.28;4481360;31;20092;-66
2023/07/12 10:29:57;;;;;;;14.02;9.80;;;;;;;32.35;50.22;98385.00;4486066;31;20096;-66
2023/07/12 10:32:28;;;;;;;14.40;9.57;;;;;;;32.64;50.95;98382.16;4478710;31;20165;-67
2023/07/12 10:35:21;;;;;;;18.92;9.40;;;;;;;32.73;48.87;98374.22;4484024;31;20115;-67
2023/07/12 10:38:05;;;;;;;12.65;9.00;;;;;;;32.88;50.57;98370.50;4488484;31;20412;-66
2023/07/12 10:40:38;;;;;;;14.93;9.35;;;;;;;32.89;48.87;98375.63;4481235;31;20477;-66
2023/07/12 10:43:15;;;;;;;15.38;9.88;;;;;;;33.12;47.41;98369.59;4489872;31;20119;-65
2023/07/12 10:45:47;;;;;;;12.10;9.75;;;;;;;33.18;47.62;98371.94;4474103;31;20092;-67
2023/07/12 10:48:22;;;;;;;15.10;10.00;;;;;;;33.20;47.03;98368.94;4484114;31;20505;-67
2023/07/12 10:50:50;;;;;;;14.40;9.27;;;;;;;32.67;47.24;98376.22;4474193;31;20143;-67
2023/07/12 10:53:28;;;;;;;13.10;9.27;;;;;;;33.11;47.81;98379.63;4485783;31;20379;-67
2023/07/12 10:56:12;;;;;;;14.60;9.10;;;;;;;33.46;46.25;98373.94;4489403;31;20118;-65
2023/07/12 10:58:51;;;;;;;16.55;9.18;;;;;;;33.23;47.14;98376.50;4485440;31;20139;-66
2023/07/12 11:01:43;;;;;;;14.45;9.10;;;;;;;33.50;45.93;98374.97;4478898;31;20163;-67
2023/07/12 11:04:17;;;;;;;11.77;9.20;;;;;;;33.55;46.04;98380.31;4482033;31;20105;-66
2023/07/12 11:07:04;;;;;;;14.68;8.85;;;;;;;33.34;44.61;98372.53;4482092;31;20093;-66
2023/07/12 11:09:44;;;;;;;13.43;8.35;;;;;;;33.51;44.70;98379.31;4483963;32;20112;-66
2023/07/12 11:12:29;;;;;;;12.70;8.82;;;;;;;33.38;46.13;98373.53;4484351;31;20103;-66
2023/07/12 11:15:17;;;;;;;11.98;8.93;;;;;;;33.50;45.10;98383.91;4485189;31;20109;-66
2023/07/12 11:17:48;;;;;;;10.90;8.93;;;;;;;33.61;45.67;98387.25;4500533;31;20122;-67
2023/07/12 11:20:23;;;;;;;12.88;8.52;;;;;;;33.87;44.81;98390.38;4484631;31;20092;-67
2023/07/12 11:23:07;;;;;;;16.27;9.00;;;;;;;33.62;46.46;98390.81;4495445;31;20151;-67
2023/07/12 11:25:44;;;;;;;11.02;9.00;;;;;;;33.72;45.40;98404.19;4491823;31;20511;-66
2023/07/12 11:28:28;;;;;;;12.55;8.73;;;;;;;33.95;44.09;98402.47;4484522;31;20761;-67
2023/07/12 11:31:25;;;;;;;12.27;9.10;;;;;;;34.36;43.93;98409.84;4485345;31;20107;-66
2023/07/12 11:34:04;;;;;;;12.77;9.13;;;;;;;34.06;44.69;98406.59;4482050;32;20159;-66
2023/07/12 11:36:34;;;;;;;14.30;9.57;;;;;;;33.92;45.07;98403.06;4475712;32;20115;-66
2023/07/12 11:39:03;;;;;;;12.55;8.07;;;;;;;34.03;44.82;98399.03;4481856;32;20599;-66
2023/07/12 11:41:30;;;;;;;9.52;7.85;;;;;;;33.75;44.60;98395.50;4484619;31;20549;-66
2023/07/12 11:43:59;;;;;;;11.52;7.28;;;;;;;33.72;43.71;98399.59;4481480;31;20164;-67